Terminal Aerodrome Forecast
Issued by NWS North Platte, NE

Home | Current Version | Previous Version | Graphics & Text | Print | Product List | Glossary On
Versions: 1 2 3 4 5 6 7 8 9 10 11 12 13 14 15 16 17 18 19 20 21
286
FTUS43 KLBF 241127
TAFVTN
TAF
KVTN 241127Z 2412/2512 19013KT P6SM BKN200
     FM241400 25014G20KT P6SM BKN200
     FM241700 31015G21KT P6SM SCT200
     FM242200 34012KT P6SM SCT200
     FM250100 01009KT P6SM BKN200
     FM250900 03009KT P6SM -SHRA OVC025=

USA.gov is the U.S. government's official web portal to all federal, state and local government web resources and services.